KAGSKVUJ

Guest
Details From KAGS - Augusta Rgnl At Bush Fld
To KVUJ - Stanly Co
Flight Number -
Tags generated
Created
Modified
Stats Distance 152 nm / 282 km
Max Altitude 19,000 ft / 5,791 m
Waypoints 3
Social Downloads 0
Likes 0
Share VATSIM

Download

Looking for another format? Having issues loading an existing format? Contact us
Advertisement - Login to hide

Notes

Basic altitude profile: - Ascent Rate: 2500ft/min - Ascent Speed: 250kts - Cruise Altitude: 35000ft - Cruise Speed: 420kts - Descent Rate: 1500ft/min - Descent Speed: 250kts Options: - Use NATs: yes - Use PACOTS: yes - Use low airways: yes - Use high airways: yes

Route

KAGS WIDER KVUJ

ID Type Via Altitude Latitude Longitude Leg Dist Tot Dist Heading (true) Name
O KAGS APT - 0 ft / 0 m 33.36968˚ -81.96390˚ - 0 nm - Augusta Rgnl At Bush Fld
WIDER FIX - 19,000 ft / 5,791 m 34.15751˚ -81.27400˚ 58 nm 58 nm 36° / 36° -
O KVUJ APT - 0 ft / 0 m 35.41700˚ -80.15057˚ 93 nm 152 nm 36° / 37° Stanly Co

Altitude Profile

Advertisement - Login to hide

KAGS

Details ICAO KAGS (AGS)
Name Augusta Rgnl At Bush Fld
Region United States
Timezone America/New_York (UTC-5.0)
Stats Elevation 144 ft / 44 m (AMSL)
Location 33.369676° -81.963895°
Runways 2
Magnetic Variation 6.721° W

METAR

KAGS 181353Z 00000KT 10SM OVC010 13/07 A3019 RMK AO2 SLP224 T01330067

Decode

TAF

TAF AMD KAGS 181432Z 1815/1912 VRB03KT P6SM OVC010 FM181800 VRB04KT P6SM OVC015 FM182000 24004KT P6SM SCT010 OVC050 FM190600 VRB04KT 6SM BR BKN025

Decode

Departure Runways

ID Width Length Bearing (true) Bearing (mag) Surface Threshold Offset Overrun Length
08 75 ft / 23 m 5,991 ft / 1,826 m 78.15° 84.87° Asphalt 0 ft / 0 m 0 ft / 0 m
17 150 ft / 46 m 8,021 ft / 2,445 m 168.17° 174.89° Asphalt 0 ft / 0 m 0 ft / 0 m
26 75 ft / 23 m 5,991 ft / 1,826 m 258.16° 264.88° Asphalt 0 ft / 0 m 0 ft / 0 m
35 150 ft / 46 m 8,021 ft / 2,445 m 348.18° 354.90° Asphalt 0 ft / 0 m 0 ft / 0 m

KVUJ

Details ICAO KVUJ
Name Stanly Co
Region United States
Timezone America/New_York (UTC-5.0)
Stats Elevation 609 ft / 186 m (AMSL)
Location 35.417003° -80.150574°
Runways 2
Magnetic Variation 8.240° W

METAR

KVUJ 181425Z AUTO 00000KT 10SM CLR 10/04 A3022 RMK AO2 T00960040

Decode

TAF

Not found

Destination Runways

ID Width Length Bearing (true) Bearing (mag) Surface Threshold Offset Overrun Length
04L 75 ft / 23 m 3,501 ft / 1,067 m 40.86° 49.10° Asphalt 0 ft / 0 m 0 ft / 0 m
04R 98 ft / 30 m 5,503 ft / 1,677 m 40.85° 49.09° Asphalt 0 ft / 0 m 0 ft / 0 m
22L 98 ft / 30 m 5,503 ft / 1,677 m 220.86° 229.10° Asphalt 0 ft / 0 m 0 ft / 0 m
22R 75 ft / 23 m 3,501 ft / 1,067 m 220.86° 229.10° Asphalt 0 ft / 0 m 0 ft / 0 m

Approach Navaids

Runway Type Ident Frequency Range Bearing (true) Bearing (mag) Slope Elevation
22L Localiser IVUJ 110.55 MHz 18 nm / 33 km 219.02° 227.26° - 609 ft / 186 m (AMSL)
22L Glidescope IVUJ 110.55 MHz 10 nm / 19 km 220.86° 229.10° 3.00° 572 ft / 174 m (AMSL)

Popular Alternatives